Time;durP1;ratioP1;P1;durP2;ratioP2;P2;SDS_P1;SDS_P2;PMS_P1;PMS_P2;Temp;Humidity;BMP_temperature;BMP_pressure;BME280_temperature;BME280_humidity;BME280_pressure;Samples;Min_cycle;Max_cycle;Signal;HPM_P1;HPM_P2
2022/01/13 00:01:42;;;;;;;35.97;16.37;;;;;;;2.45;88.18;103129.78;5034909;28;20838;-69
2022/01/13 00:04:10;;;;;;;36.20;17.27;;;;;;;2.46;88.47;103122.78;5033106;28;20210;-69
2022/01/13 00:06:37;;;;;;;43.87;20.90;;;;;;;2.47;88.08;103120.16;5032758;28;20696;-70
2022/01/13 00:09:04;;;;;;;37.27;16.93;;;;;;;2.49;88.47;103130.72;5018503;28;20234;-69
2022/01/13 00:11:30;;;;;;;36.97;16.93;;;;;;;2.48;88.43;103129.81;5033060;28;20231;-71
2022/01/13 00:14:21;;;;;;;33.97;15.80;;;;;;;2.49;88.40;103128.06;5032918;28;20675;-70
2022/01/13 00:17:24;;;;;;;37.13;17.07;;;;;;;2.49;88.11;103128.06;5021367;28;20241;-69
2022/01/13 00:20:09;;;;;;;36.93;16.73;;;;;;;2.48;88.34;103127.19;5031354;28;20234;-71
2022/01/13 00:22:48;;;;;;;35.97;17.33;;;;;;;2.49;88.67;103126.31;5015366;28;20589;-70
2022/01/13 00:25:17;;;;;;;33.50;16.90;;;;;;;2.52;88.37;103130.72;5030496;28;20206;-70
2022/01/13 00:27:50;;;;;;;39.43;17.23;;;;;;;2.51;88.43;103131.59;5032594;28;20222;-69
2022/01/13 00:30:18;;;;;;;35.80;18.53;;;;;;;2.50;88.26;103130.72;5032032;28;20226;-70
2022/01/13 00:32:46;;;;;;;37.93;17.00;;;;;;;2.50;88.56;103135.09;5031299;28;20209;-70
2022/01/13 00:35:13;;;;;;;39.47;17.53;;;;;;;2.49;88.12;103136.84;5028543;28;20211;-70
2022/01/13 00:37:40;;;;;;;36.37;17.80;;;;;;;2.49;87.97;103133.34;5030820;28;20198;-71
2022/01/13 00:40:08;;;;;;;33.20;16.80;;;;;;;2.50;88.09;103133.34;5029617;28;20715;-69
2022/01/13 00:42:35;;;;;;;40.20;18.77;;;;;;;2.49;87.71;103135.97;5029512;28;20208;-70
2022/01/13 00:45:03;;;;;;;41.90;18.00;;;;;;;2.48;87.86;103127.19;5028484;28;20205;-69
2022/01/13 00:47:30;;;;;;;38.80;17.73;;;;;;;2.48;88.36;103126.31;5032245;28;20288;-69
2022/01/13 00:49:58;;;;;;;36.60;17.47;;;;;;;2.47;88.31;103138.59;5032109;28;20645;-70
2022/01/13 00:52:25;;;;;;;38.20;17.87;;;;;;;2.46;87.93;103138.56;5030793;28;20779;-71
2022/01/13 00:54:51;;;;;;;38.00;17.07;;;;;;;2.45;88.19;103132.41;5032020;28;20206;-70
2022/01/13 00:57:18;;;;;;;39.50;19.33;;;;;;;2.45;87.52;103129.78;5032406;28;20206;-70
2022/01/13 00:59:44;;;;;;;41.20;18.53;;;;;;;2.44;87.63;103126.28;5017235;28;20308;-69
2022/01/13 01:02:11;;;;;;;50.00;19.80;;;;;;;2.43;88.35;103134.16;5025622;28;20203;-72
2022/01/13 01:04:37;;;;;;;47.23;18.90;;;;;;;2.42;88.30;103120.13;5032566;28;20214;-72
2022/01/13 01:07:05;;;;;;;43.57;20.40;;;;;;;2.41;87.84;103125.34;5031779;28;20206;-70
2022/01/13 01:09:39;;;;;;;46.20;19.37;;;;;;;2.40;87.88;103128.84;5032276;28;20608;-67
2022/01/13 01:12:06;;;;;;;47.07;19.37;;;;;;;2.38;88.11;103126.19;5032429;28;20206;-71
2022/01/13 01:14:36;;;;;;;52.40;21.47;;;;;;;2.37;88.31;103129.69;5014828;28;20218;-70
2022/01/13 01:17:03;;;;;;;45.60;20.57;;;;;;;2.35;87.74;103125.28;5023709;28;20221;-71
2022/01/13 01:19:30;;;;;;;49.50;20.60;;;;;;;2.32;88.07;103120.03;5031425;28;20230;-70
2022/01/13 01:22:31;;;;;;;54.50;22.83;;;;;;;2.31;87.73;103121.78;5031739;28;20885;-70
2022/01/13 01:25:18;;;;;;;54.97;21.83;;;;;;;2.29;87.87;103126.13;5031239;28;20217;-70
2022/01/13 01:27:49;;;;;;;53.10;21.63;;;;;;;2.26;88.11;103126.09;5028972;28;20726;-71
2022/01/13 01:30:26;;;;;;;52.87;21.40;;;;;;;2.23;87.99;103120.78;5025565;28;20238;-70
2022/01/13 01:32:53;;;;;;;55.33;23.67;;;;;;;2.21;87.93;103126.91;5024103;28;20676;-70
2022/01/13 01:35:24;;;;;;;60.07;22.20;;;;;;;2.19;87.90;103126.88;5029173;28;20232;-72
2022/01/13 01:37:50;;;;;;;56.90;22.20;;;;;;;2.18;88.46;103129.50;5024415;28;20198;-69
2022/01/13 01:40:19;;;;;;;61.43;23.73;;;;;;;2.17;87.77;103135.59;5022378;28;20243;-70
2022/01/13 01:42:47;;;;;;;60.27;23.13;;;;;;;2.15;88.55;103140.00;5029183;28;20217;-71
2022/01/13 01:45:15;;;;;;;63.90;24.97;;;;;;;2.13;88.30;103139.09;5025025;28;20207;-69
2022/01/13 01:47:43;;;;;;;59.90;23.83;;;;;;;2.09;88.15;103144.31;5026013;28;20230;-69
2022/01/13 01:50:18;;;;;;;65.10;25.10;;;;;;;2.09;88.38;103146.06;5022262;28;20231;-71
2022/01/13 01:52:45;;;;;;;63.73;24.93;;;;;;;2.06;88.38;103149.53;5028435;28;20308;-71
2022/01/13 01:55:11;;;;;;;73.30;25.43;;;;;;;2.04;88.10;103148.63;5029090;28;20205;-72
2022/01/13 01:57:39;;;;;;;68.90;26.03;;;;;;;2.05;88.15;103149.50;5031322;28;20203;-74
2022/01/13 02:00:10;;;;;;;61.77;24.40;;;;;;;2.02;88.07;103133.69;5038475;22;21385;-68
2022/01/13 02:02:37;;;;;;;66.50;26.03;;;;;;;1.99;88.57;103134.53;5049408;28;20212;-68
2022/01/13 02:05:04;;;;;;;62.20;25.03;;;;;;;1.97;88.29;103131.00;5040135;28;20216;-68
2022/01/13 02:07:31;;;;;;;65.00;27.17;;;;;;;1.95;88.32;103127.50;5033247;28;20209;-68
2022/01/13 02:09:57;;;;;;;63.37;26.27;;;;;;;1.93;88.57;103125.72;5049839;28;20229;-68
2022/01/13 02:12:34;;;;;;;63.30;26.20;;;;;;;1.92;88.29;103122.22;5051273;28;20228;-68
2022/01/13 02:17:49;;;;;;;61.23;25.13;;;;;;;1.89;88.38;103119.53;5050290;28;20204;-68
2022/01/13 02:20:18;;;;;;;68.80;25.80;;;;;;;1.86;88.71;103118.63;5047552;28;20610;-67
2022/01/13 02:22:45;;;;;;;76.37;27.27;;;;;;;1.86;88.75;103124.75;5040276;28;20214;-68
2022/01/13 02:25:14;;;;;;;73.53;29.50;;;;;;;1.85;88.47;103125.63;5035732;28;20202;-68
2022/01/13 02:27:41;;;;;;;78.87;29.63;;;;;;;1.84;88.29;103131.72;5039922;28;20676;-68
2022/01/13 02:30:08;;;;;;;75.23;29.03;;;;;;;1.83;88.67;103127.34;5041927;28;20229;-68
2022/01/13 02:32:35;;;;;;;74.60;28.13;;;;;;;1.82;88.37;103124.69;5043389;28;20210;-68
2022/01/13 02:35:02;;;;;;;77.73;29.77;;;;;;;1.82;88.88;103120.31;5046112;28;20228;-67
2022/01/13 02:37:29;;;;;;;78.53;29.87;;;;;;;1.81;89.30;103115.94;5030981;28;20217;-68
2022/01/13 02:39:56;;;;;;;71.87;29.77;;;;;;;1.80;89.29;103108.03;5048293;28;20225;-68
2022/01/13 02:42:23;;;;;;;79.43;29.50;;;;;;;1.81;88.93;103108.03;5037750;28;20209;-67
2022/01/13 02:45:00;;;;;;;85.87;30.47;;;;;;;1.81;88.90;103102.78;5048503;28;20213;-68
2022/01/13 02:47:58;;;;;;;81.50;28.63;;;;;;;1.80;89.62;103087.88;5039241;28;20208;-67
2022/01/13 02:50:23;;;;;;;69.93;28.73;;;;;;;1.80;89.03;103087.00;5038044;28;20253;-68
2022/01/13 02:52:51;;;;;;;73.33;29.43;;;;;;;1.78;89.00;103086.13;5035727;28;20213;-68
2022/01/13 02:55:18;;;;;;;77.10;30.37;;;;;;;1.77;89.43;103082.63;5043647;28;20213;-68
2022/01/13 02:57:44;;;;;;;77.60;29.37;;;;;;;1.75;89.40;103071.22;5032516;28;20202;-67
2022/01/13 03:00:16;;;;;;;70.77;29.47;;;;;;;1.74;89.71;103067.69;5047922;28;20719;-68
2022/01/13 03:02:46;;;;;;;78.77;30.43;;;;;;;1.74;89.39;103058.94;5046649;28;20201;-67
2022/01/13 03:05:14;;;;;;;85.63;31.20;;;;;;;1.73;89.69;103050.19;5046784;28;20939;-69
2022/01/13 03:07:40;;;;;;;82.37;32.27;;;;;;;1.73;89.95;103049.28;5039010;28;20205;-68
2022/01/13 03:10:09;;;;;;;81.97;31.33;;;;;;;1.72;89.44;103048.41;5051699;28;20722;-67
2022/01/13 03:12:39;;;;;;;82.20;30.93;;;;;;;1.73;89.37;103062.44;5044552;28;20202;-67
2022/01/13 03:15:06;;;;;;;83.27;30.87;;;;;;;1.70;89.68;103058.00;5038781;28;20214;-68
2022/01/13 03:17:33;;;;;;;77.40;30.00;;;;;;;1.70;89.67;103049.25;5037032;28;20205;-68
2022/01/13 03:19:59;;;;;;;74.47;29.03;;;;;;;1.67;89.54;103047.47;5047868;28;20232;-67
2022/01/13 03:22:26;;;;;;;72.87;27.97;;;;;;;1.67;90.34;103052.72;5055193;28;20206;-67
2022/01/13 03:24:52;;;;;;;79.80;30.30;;;;;;;1.66;89.84;103050.06;5044192;28;20213;-68
2022/01/13 03:27:23;;;;;;;84.73;31.33;;;;;;;1.64;90.37;103047.44;5042746;28;20673;-68
2022/01/13 03:29:50;;;;;;;67.57;28.60;;;;;;;1.64;90.47;103043.91;5049625;28;20256;-68
2022/01/13 03:32:17;;;;;;;73.80;29.83;;;;;;;1.64;90.51;103043.91;5054582;28;20216;-67
2022/01/13 03:34:44;;;;;;;78.43;29.53;;;;;;;1.62;90.39;103045.63;5052992;28;20201;-68
2022/01/13 03:37:10;;;;;;;84.13;31.53;;;;;;;1.63;90.46;103050.91;5053831;28;20212;-68
2022/01/13 03:39:37;;;;;;;69.53;27.97;;;;;;;1.61;90.54;103038.66;5044977;28;20214;-68
2022/01/13 03:42:04;;;;;;;82.53;29.87;;;;;;;1.61;90.54;103047.38;5036986;28;20205;-67
2022/01/13 03:44:32;;;;;;;78.73;30.17;;;;;;;1.60;90.14;103048.28;5054565;28;20216;-67
2022/01/13 03:47:02;;;;;;;80.90;30.07;;;;;;;1.59;90.92;103051.78;5060182;28;20204;-67
2022/01/13 03:49:29;;;;;;;83.83;31.30;;;;;;;1.59;90.76;103046.50;5049817;28;20234;-67
2022/01/13 03:52:52;;;;;;;84.80;31.93;;;;;;;1.58;90.44;103051.75;5051848;28;20202;-67
2022/01/13 03:56:24;;;;;;;83.03;31.60;;;;;;;1.58;91.26;103046.50;5054568;28;20232;-67
2022/01/13 03:59:40;;;;;;;88.13;29.67;;;;;;;1.60;90.79;103040.41;5051028;28;20197;-67
2022/01/13 04:02:09;;;;;;;79.63;29.10;;;;;;;1.62;91.29;103035.13;5045349;28;20693;-68
2022/01/13 04:04:40;;;;;;;87.60;31.97;;;;;;;1.63;91.35;103026.38;5054978;28;20213;-68
2022/01/13 04:07:16;;;;;;;81.83;29.90;;;;;;;1.65;91.21;103019.41;5055001;28;20201;-68
2022/01/13 04:10:25;;;;;;;85.60;30.20;;;;;;;1.66;91.66;103013.28;5054315;28;20225;-68
2022/01/13 04:12:52;;;;;;;75.90;29.30;;;;;;;1.69;91.87;103023.84;5050394;28;20690;-68
2022/01/13 04:15:20;;;;;;;90.20;31.37;;;;;;;1.70;91.28;103022.97;5046722;28;20213;-68
2022/01/13 04:17:48;;;;;;;88.87;29.20;;;;;;;1.73;91.13;103023.91;5051178;28;20206;-68
2022/01/13 04:20:15;;;;;;;91.30;31.90;;;;;;;1.74;91.57;103017.78;5048527;28;20226;-68
2022/01/13 04:22:42;;;;;;;86.40;31.20;;;;;;;1.76;92.07;103011.66;5048996;28;20205;-67
2022/01/13 04:25:09;;;;;;;84.93;30.53;;;;;;;1.75;91.60;103010.78;5053287;28;20208;-68
2022/01/13 04:27:41;;;;;;;93.20;32.70;;;;;;;1.76;92.09;103011.66;5056144;28;20209;-68
2022/01/13 04:30:34;;;;;;;92.23;31.67;;;;;;;1.76;91.75;103004.66;5056665;28;20232;-67
2022/01/13 04:33:03;;;;;;;94.23;33.27;;;;;;;1.76;91.77;103015.19;5055486;28;20211;-68
2022/01/13 04:35:29;;;;;;;93.00;32.27;;;;;;;1.76;92.15;103007.28;5054563;28;20208;-68
2022/01/13 04:37:56;;;;;;;89.77;31.43;;;;;;;1.76;91.94;103002.03;5057922;28;20654;-68
2022/01/13 04:40:22;;;;;;;87.43;32.03;;;;;;;1.77;91.86;102995.94;5052217;28;20697;-68
2022/01/13 04:42:53;;;;;;;94.63;31.67;;;;;;;1.77;92.02;103003.81;5046080;28;20216;-68
2022/01/13 04:45:21;;;;;;;93.80;32.00;;;;;;;1.77;92.18;102998.56;5047634;28;20206;-68
2022/01/13 04:47:48;;;;;;;89.50;31.63;;;;;;;1.79;92.40;103011.72;5047068;28;20333;-67
2022/01/13 04:50:16;;;;;;;92.63;31.43;;;;;;;1.79;91.87;102998.56;5043355;28;20326;-69
2022/01/13 04:52:42;;;;;;;88.90;30.63;;;;;;;1.79;92.49;102999.44;5059346;28;20663;-68
2022/01/13 04:55:12;;;;;;;90.23;31.30;;;;;;;1.78;92.55;103000.31;5049575;28;20209;-67
2022/01/13 04:57:39;;;;;;;92.13;32.00;;;;;;;1.79;92.80;102998.56;5055066;28;20201;-67
2022/01/13 05:00:10;;;;;;;93.60;33.33;;;;;;;1.79;92.25;103002.06;5052099;28;20225;-67
2022/01/13 05:02:37;;;;;;;96.57;32.30;;;;;;;1.80;92.87;103013.44;5047632;28;20259;-67
2022/01/13 05:05:04;;;;;;;90.13;31.77;;;;;;;1.80;92.85;103009.06;5045862;28;20209;-67
2022/01/13 05:07:32;;;;;;;96.33;30.53;;;;;;;1.80;92.68;103019.56;5049141;28;20674;-66
2022/01/13 05:09:59;;;;;;;92.60;30.63;;;;;;;1.82;92.39;103030.09;5047539;28;20226;-67
2022/01/13 05:12:31;;;;;;;91.23;30.90;;;;;;;1.84;92.56;103028.38;5049402;28;20198;-67
2022/01/13 05:15:01;;;;;;;93.07;29.73;;;;;;;1.83;93.10;103019.63;5054186;28;20209;-67
2022/01/13 05:17:58;;;;;;;98.27;28.83;;;;;;;1.84;92.71;103016.13;5062711;28;20229;-67
2022/01/13 05:20:28;;;;;;;85.40;28.53;;;;;;;1.85;93.28;103011.75;5053154;28;20212;-67
2022/01/13 05:22:56;;;;;;;86.70;30.23;;;;;;;1.85;92.96;103015.25;5059079;28;20266;-67
2022/01/13 05:25:23;;;;;;;87.37;30.40;;;;;;;1.87;93.50;103021.41;5050310;28;20216;-67
2022/01/13 05:27:49;;;;;;;82.00;28.03;;;;;;;1.86;92.85;103027.53;5053556;28;20205;-67
2022/01/13 05:30:18;;;;;;;87.37;30.30;;;;;;;1.88;93.56;103023.19;5050441;28;20724;-66
2022/01/13 05:32:45;;;;;;;91.60;30.10;;;;;;;1.90;92.82;103034.59;5046711;28;20593;-67
2022/01/13 05:35:12;;;;;;;91.80;30.17;;;;;;;1.93;92.98;103021.50;5050256;28;20206;-67
2022/01/13 05:37:39;;;;;;;81.67;28.37;;;;;;;1.94;93.42;103017.13;5040073;28;20655;-66
2022/01/13 05:40:08;;;;;;;75.23;26.30;;;;;;;1.95;93.32;103022.38;5042210;28;20229;-67
2022/01/13 05:42:34;;;;;;;90.03;28.67;;;;;;;1.97;93.35;103023.25;5043005;28;20198;-66
2022/01/13 05:45:02;;;;;;;106.27;30.93;;;;;;;1.99;93.55;103032.03;5039835;28;20220;-67
2022/01/13 05:47:29;;;;;;;96.10;30.00;;;;;;;2.00;93.47;103027.66;5043749;28;20211;-67
2022/01/13 05:49:56;;;;;;;96.03;31.50;;;;;;;2.02;93.22;103034.69;5035959;28;20229;-66
2022/01/13 05:52:22;;;;;;;90.27;29.47;;;;;;;2.03;93.66;103038.22;5040244;28;20201;-67
2022/01/13 05:54:49;;;;;;;94.83;28.27;;;;;;;2.05;93.75;103033.84;5043026;28;20202;-67
2022/01/13 05:57:17;;;;;;;103.00;32.53;;;;;;;2.03;93.71;103036.47;5045422;28;20212;-67
2022/01/13 05:59:43;;;;;;;91.10;29.93;;;;;;;2.06;93.84;103033.88;5044371;28;20204;-67
2022/01/13 06:02:11;;;;;;;95.93;31.43;;;;;;;2.08;93.59;103040.03;5041803;28;20216;-67
2022/01/13 06:04:37;;;;;;;96.53;29.43;;;;;;;2.09;93.70;103033.91;5037275;28;20217;-67
2022/01/13 06:07:04;;;;;;;90.47;30.67;;;;;;;2.11;94.20;103030.41;5037616;28;20574;-67
2022/01/13 06:09:30;;;;;;;86.47;28.17;;;;;;;2.13;93.73;103033.94;5042783;28;20236;-66
2022/01/13 06:12:00;;;;;;;82.67;27.67;;;;;;;2.13;94.04;103029.56;5038375;28;20202;-66
2022/01/13 06:14:29;;;;;;;90.10;28.60;;;;;;;2.12;94.06;103022.53;5049576;28;20200;-67
2022/01/13 06:16:55;;;;;;;86.73;29.20;;;;;;;2.13;93.95;103023.44;5050775;28;20210;-66
2022/01/13 06:19:22;;;;;;;85.63;27.47;;;;;;;2.15;94.76;103019.06;5047746;28;20626;-67
2022/01/13 06:21:49;;;;;;;91.07;29.47;;;;;;;2.17;94.46;103019.94;5055392;28;20225;-67
2022/01/13 06:24:15;;;;;;;88.90;28.83;;;;;;;2.18;93.99;103021.69;5040115;28;20602;-67
2022/01/13 06:26:42;;;;;;;93.77;30.37;;;;;;;2.19;94.25;103013.84;5051188;28;20201;-67
2022/01/13 06:29:08;;;;;;;85.37;29.23;;;;;;;2.18;93.89;103003.28;5033993;28;20229;-70
2022/01/13 06:31:36;;;;;;;85.80;28.90;;;;;;;2.20;94.05;103004.19;5036713;28;20750;-73
2022/01/13 06:34:03;;;;;;;93.50;30.53;;;;;;;2.22;94.35;103011.22;5042334;28;20214;-68
2022/01/13 06:36:31;;;;;;;84.40;27.30;;;;;;;2.24;94.65;103006.00;5041867;28;20202;-67
2022/01/13 06:38:58;;;;;;;82.53;29.33;;;;;;;2.23;94.20;102999.84;5041442;28;20217;-70
2022/01/13 06:41:24;;;;;;;85.40;28.43;;;;;;;2.22;94.00;103002.47;5041044;28;20226;-70
2022/01/13 06:43:51;;;;;;;82.67;27.63;;;;;;;2.24;94.17;103003.38;5052624;28;20210;-69
2022/01/13 06:46:17;;;;;;;93.93;31.67;;;;;;;2.22;94.12;102998.09;5040172;28;20205;-69
2022/01/13 06:48:46;;;;;;;91.63;28.27;;;;;;;2.25;94.46;102997.25;5033012;28;20209;-68
2022/01/13 06:51:12;;;;;;;92.97;29.70;;;;;;;2.25;94.20;102986.72;5040221;28;20238;-70
2022/01/13 06:53:39;;;;;;;80.73;29.47;;;;;;;2.24;94.82;102995.47;5042405;28;20214;-68
2022/01/13 06:56:06;;;;;;;80.97;26.67;;;;;;;2.27;94.38;103006.91;5037604;28;20217;-69
2022/01/13 06:58:32;;;;;;;87.47;27.50;;;;;;;2.29;94.48;103006.91;5042832;28;20240;-69
2022/01/13 07:00:59;;;;;;;93.53;30.63;;;;;;;2.30;94.50;103000.78;5038865;28;20256;-69
2022/01/13 07:03:25;;;;;;;79.40;28.00;;;;;;;2.32;94.33;103009.59;5030947;28;20214;-70
2022/01/13 07:05:53;;;;;;;81.83;27.10;;;;;;;2.31;94.64;103013.97;5049584;28;20209;-70
2022/01/13 07:08:20;;;;;;;84.43;28.20;;;;;;;2.32;94.43;103010.47;5048387;28;20232;-69
2022/01/13 07:10:46;;;;;;;91.03;29.40;;;;;;;2.33;94.84;103016.59;5047814;28;20277;-69
2022/01/13 07:13:13;;;;;;;92.27;30.27;;;;;;;2.32;94.82;103017.47;5038125;28;20221;-69
2022/01/13 07:15:39;;;;;;;93.03;29.87;;;;;;;2.32;95.04;103018.34;5032693;28;20214;-69
2022/01/13 07:18:06;;;;;;;86.40;30.47;;;;;;;2.35;94.46;103020.09;5046303;28;20213;-68
2022/01/13 07:20:32;;;;;;;91.00;27.43;;;;;;;2.34;94.64;103016.59;5029389;28;20241;-69
2022/01/13 07:23:00;;;;;;;85.13;27.17;;;;;;;2.33;94.35;103016.59;5029261;28;20220;-68
2022/01/13 07:25:27;;;;;;;78.73;27.47;;;;;;;2.34;94.77;103026.22;5034481;28;20693;-69
2022/01/13 07:27:55;;;;;;;77.40;24.93;;;;;;;2.32;94.49;103020.97;5043449;28;20593;-69
2022/01/13 07:30:21;;;;;;;78.17;24.73;;;;;;;2.36;95.01;103024.50;5032425;28;20674;-68
2022/01/13 07:32:48;;;;;;;77.13;26.80;;;;;;;2.32;94.51;103020.97;5030154;28;20220;-68
2022/01/13 07:35:14;;;;;;;84.03;26.83;;;;;;;2.33;95.06;103043.75;5031064;28;20210;-69
2022/01/13 07:37:42;;;;;;;74.43;25.87;;;;;;;2.32;94.40;103035.88;5031517;28;20209;-70
2022/01/13 07:40:13;;;;;;;79.03;27.27;;;;;;;2.33;95.39;103040.28;5040599;28;20229;-69
2022/01/13 07:42:41;;;;;;;85.03;25.43;;;;;;;2.35;94.85;103035.88;5040240;28;20202;-68
2022/01/13 07:45:10;;;;;;;77.10;27.63;;;;;;;2.35;94.75;103039.38;5037166;28;20213;-69
2022/01/13 07:47:36;;;;;;;68.57;24.07;;;;;;;2.38;94.50;103042.03;5048446;28;20213;-69
2022/01/13 07:50:03;;;;;;;84.13;27.47;;;;;;;2.37;94.95;103035.03;5045378;28;20233;-68
2022/01/13 07:52:30;;;;;;;89.33;28.87;;;;;;;2.35;94.86;103039.38;5048787;28;20213;-68
2022/01/13 07:54:56;;;;;;;85.37;29.37;;;;;;;2.35;95.06;103047.28;5031360;28;20218;-70
2022/01/13 07:57:24;;;;;;;82.73;27.67;;;;;;;2.36;95.18;103042.91;5029294;28;20679;-70
2022/01/13 07:59:52;;;;;;;84.47;26.13;;;;;;;2.37;94.79;103035.03;5030520;28;20226;-70
2022/01/13 08:02:19;;;;;;;84.40;28.03;;;;;;;2.37;94.90;103032.41;5056456;22;20234;-70
2022/01/13 08:04:49;;;;;;;76.97;24.40;;;;;;;2.41;94.52;103030.69;5029508;28;20221;-70
2022/01/13 08:07:15;;;;;;;74.13;25.70;;;;;;;2.42;95.30;103033.31;5042649;28;20625;-70
2022/01/13 08:09:42;;;;;;;75.87;25.80;;;;;;;2.43;94.63;103036.84;5027771;28;20230;-69
2022/01/13 08:12:10;;;;;;;79.57;26.47;;;;;;;2.46;95.36;103050.03;5015361;28;20231;-69
2022/01/13 08:14:38;;;;;;;73.03;25.07;;;;;;;2.46;95.22;103044.75;5027726;28;20210;-70
2022/01/13 08:17:07;;;;;;;80.70;26.20;;;;;;;2.46;95.38;103046.50;5016113;28;20207;-71
2022/01/13 08:19:48;;;;;;;86.17;27.70;;;;;;;2.46;95.24;103050.03;5026724;28;20222;-69
2022/01/13 08:22:16;;;;;;;75.60;27.00;;;;;;;2.47;95.47;103054.41;5013335;28;20239;-71
2022/01/13 08:24:43;;;;;;;75.57;25.53;;;;;;;2.47;95.38;103050.91;5012612;28;20593;-70
2022/01/13 08:27:10;;;;;;;77.83;26.20;;;;;;;2.49;95.10;103052.69;5008762;28;20665;-70
2022/01/13 08:29:38;;;;;;;74.17;22.80;;;;;;;2.51;95.28;103050.91;5020330;28;20222;-68
2022/01/13 08:32:05;;;;;;;66.83;24.60;;;;;;;2.49;95.42;103057.94;5012539;28;21038;-69
2022/01/13 08:34:31;;;;;;;67.50;24.00;;;;;;;2.51;94.46;103057.97;5015908;28;20210;-70
2022/01/13 08:36:58;;;;;;;69.00;25.60;;;;;;;2.54;95.30;103056.22;5014704;28;20219;-70
2022/01/13 08:39:24;;;;;;;68.93;24.07;;;;;;;2.55;95.31;103057.97;5012624;28;20215;-69
2022/01/13 08:41:51;;;;;;;65.70;22.40;;;;;;;2.57;94.78;103052.72;5018544;28;20587;-70
2022/01/13 08:44:18;;;;;;;66.00;24.33;;;;;;;2.57;95.11;103063.25;5011681;28;20668;-69
2022/01/13 08:46:46;;;;;;;65.60;23.60;;;;;;;2.55;94.50;103065.88;5002435;28;20207;-69
2022/01/13 08:49:13;;;;;;;72.53;24.73;;;;;;;2.53;94.42;103064.06;5010983;28;20664;-70
2022/01/13 08:51:39;;;;;;;60.90;19.33;;;;;;;2.54;95.29;103066.72;5016574;28;20226;-69
2022/01/13 08:54:06;;;;;;;70.50;24.37;;;;;;;2.54;94.58;103077.25;5019860;28;20219;-68
2022/01/13 08:56:32;;;;;;;56.40;22.13;;;;;;;2.54;94.38;103072.00;5011069;28;20225;-68
2022/01/13 08:58:59;;;;;;;64.63;24.13;;;;;;;2.55;94.44;103076.38;5017212;28;20211;-69
2022/01/13 09:01:25;;;;;;;63.53;22.17;;;;;;;2.56;94.75;103077.25;5011389;28;20243;-69
2022/01/13 09:03:53;;;;;;;67.23;22.97;;;;;;;2.58;95.12;103068.53;5013196;28;20217;-70
2022/01/13 09:06:20;;;;;;;59.77;20.17;;;;;;;2.62;95.17;103070.31;5029462;28;20214;-69
2022/01/13 09:08:47;;;;;;;63.23;23.33;;;;;;;2.61;95.06;103072.94;5030803;28;20225;-70
2022/01/13 09:11:13;;;;;;;60.03;23.00;;;;;;;2.64;94.21;103076.47;5013647;28;20594;-68
2022/01/13 09:13:40;;;;;;;49.30;19.37;;;;;;;2.69;94.79;103079.13;5012272;28;20616;-70
2022/01/13 09:16:14;;;;;;;60.10;19.93;;;;;;;2.71;94.79;103083.53;5013596;28;20215;-72
2022/01/13 09:18:58;;;;;;;56.20;20.20;;;;;;;2.74;95.02;103091.44;5025475;28;20202;-70
2022/01/13 09:21:29;;;;;;;54.77;20.90;;;;;;;2.75;94.80;103090.59;5012091;28;20720;-69
2022/01/13 09:23:56;;;;;;;66.93;24.00;;;;;;;2.77;94.75;103090.59;5012029;28;20229;-70
2022/01/13 09:26:23;;;;;;;66.40;22.03;;;;;;;2.78;94.61;103079.22;5017796;28;20207;-69
2022/01/13 09:28:50;;;;;;;52.53;20.57;;;;;;;2.80;94.54;103066.94;5017483;28;20304;-69
2022/01/13 09:31:16;;;;;;;62.13;22.13;;;;;;;2.82;95.09;103069.59;5019824;28;20231;-70
2022/01/13 09:33:43;;;;;;;56.07;20.47;;;;;;;2.81;94.52;103070.47;4999127;28;20203;-71
2022/01/13 09:36:09;;;;;;;54.03;20.13;;;;;;;2.84;94.66;103070.47;5001490;28;21105;-70
2022/01/13 09:38:37;;;;;;;59.03;20.73;;;;;;;2.87;94.16;103078.38;5008096;28;20209;-70
2022/01/13 09:41:05;;;;;;;46.53;18.07;;;;;;;2.92;94.03;103074.03;5024898;28;20237;-71
2022/01/13 09:43:31;;;;;;;50.07;20.47;;;;;;;2.91;94.31;103069.63;5012139;28;20211;-70
2022/01/13 09:45:59;;;;;;;53.03;19.60;;;;;;;2.94;94.33;103064.41;5011915;28;20215;-70
2022/01/13 09:48:27;;;;;;;52.27;20.27;;;;;;;2.92;93.83;103077.53;5014744;28;20298;-70
2022/01/13 09:50:54;;;;;;;53.73;19.70;;;;;;;2.90;94.56;103075.78;5011212;28;20330;-69
2022/01/13 09:53:21;;;;;;;59.67;19.53;;;;;;;2.91;93.93;103083.69;5012926;28;20207;-73
2022/01/13 09:55:48;;;;;;;60.57;21.40;;;;;;;2.91;93.91;103074.91;5017361;28;20217;-71
2022/01/13 09:58:16;;;;;;;54.43;19.70;;;;;;;2.91;94.04;103072.28;5019606;28;20589;-72
2022/01/13 10:00:45;;;;;;;57.20;22.73;;;;;;;2.93;94.35;103057.38;5009989;28;20750;-74
2022/01/13 10:03:12;;;;;;;50.67;19.07;;;;;;;2.95;93.93;103060.91;5011245;28;20214;-71
2022/01/13 10:05:48;;;;;;;52.80;19.77;;;;;;;2.94;93.55;103059.13;5012174;28;20215;-70
2022/01/13 10:08:15;;;;;;;52.77;18.93;;;;;;;2.96;93.27;103063.53;5001194;28;20222;-72
2022/01/13 10:10:43;;;;;;;48.67;18.37;;;;;;;3.00;93.79;103065.34;5010655;28;20720;-70
2022/01/13 10:13:14;;;;;;;43.80;18.50;;;;;;;3.00;93.03;103065.34;5012556;28;20233;-70
2022/01/13 10:18:42;;;;;;;46.60;19.00;;;;;;;3.00;93.89;103065.34;5002228;28;20577;-71
2022/01/13 10:21:10;;;;;;;52.07;21.77;;;;;;;2.98;93.63;103061.81;5010226;28;20261;-69
2022/01/13 10:23:37;;;;;;;50.57;19.10;;;;;;;3.00;93.30;103052.16;5012672;28;20577;-68
2022/01/13 10:26:12;;;;;;;52.47;19.57;;;;;;;3.06;93.60;103052.19;5009811;28;20213;-69
2022/01/13 10:28:40;;;;;;;48.70;20.53;;;;;;;3.03;93.36;103053.94;5014130;28;20688;-70
2022/01/13 10:31:07;;;;;;;48.50;19.63;;;;;;;3.10;93.39;103048.72;5014255;28;20234;-70
2022/01/13 10:33:36;;;;;;;45.30;17.77;;;;;;;3.17;93.34;103035.59;5017324;28;20202;-70
2022/01/13 10:36:10;;;;;;;54.83;23.63;;;;;;;3.25;92.98;103044.38;5013677;28;20250;-68
2022/01/13 10:38:54;;;;;;;47.50;20.47;;;;;;;3.32;93.27;103038.28;5013517;28;20213;-70
2022/01/13 10:41:31;;;;;;;42.60;17.33;;;;;;;3.37;92.90;103037.44;5010587;28;20726;-70
2022/01/13 10:44:16;;;;;;;51.23;17.90;;;;;;;3.45;93.09;103040.09;5010259;28;20210;-70
2022/01/13 10:47:00;;;;;;;41.63;17.43;;;;;;;3.51;92.83;103049.78;5009367;28;20234;-70
2022/01/13 10:49:34;;;;;;;47.27;19.07;;;;;;;3.51;92.67;103037.50;5004302;28;20258;-70
2022/01/13 10:52:23;;;;;;;40.97;16.97;;;;;;;3.55;92.36;103035.75;5000967;28;20230;-67
2022/01/13 10:54:52;;;;;;;38.97;15.63;;;;;;;3.60;92.68;103029.59;4994687;28;20229;-68
2022/01/13 10:57:21;;;;;;;46.93;20.53;;;;;;;3.64;92.09;103022.59;5016918;28;20305;-70
2022/01/13 10:59:49;;;;;;;41.27;16.47;;;;;;;3.68;92.59;103029.66;5026996;28;20217;-70
2022/01/13 11:02:17;;;;;;;33.53;14.40;;;;;;;3.73;92.48;103034.06;5006971;28;20234;-70
2022/01/13 11:04:44;;;;;;;46.87;20.40;;;;;;;3.74;91.95;103019.13;5000468;28;20211;-70
2022/01/13 11:07:15;;;;;;;38.90;16.70;;;;;;;3.75;92.08;103021.78;5002103;28;20215;-70
2022/01/13 11:09:43;;;;;;;36.90;16.67;;;;;;;3.73;91.88;103020.88;5001651;28;20212;-69
2022/01/13 11:12:11;;;;;;;43.67;17.93;;;;;;;3.71;91.03;103012.09;4996657;28;20235;-70
2022/01/13 11:14:42;;;;;;;42.10;16.90;;;;;;;3.69;91.57;103013.84;5005308;28;20217;-70
2022/01/13 11:17:11;;;;;;;42.23;16.40;;;;;;;3.67;91.30;103019.97;5001672;28;20287;-71
2022/01/13 11:19:41;;;;;;;44.77;17.10;;;;;;;3.67;91.09;103010.31;5005976;28;20206;-71
2022/01/13 11:22:10;;;;;;;43.00;17.97;;;;;;;3.64;90.64;103026.13;4998759;28;20223;-68
2022/01/13 11:24:38;;;;;;;40.57;17.07;;;;;;;3.65;91.21;103008.56;4999206;28;20198;-71
2022/01/13 11:27:06;;;;;;;42.87;17.10;;;;;;;3.65;90.91;103009.44;5001194;28;20203;-70
2022/01/13 11:29:32;;;;;;;38.50;15.50;;;;;;;3.65;90.33;103008.56;5007726;28;20210;-70
2022/01/13 11:31:59;;;;;;;40.07;16.80;;;;;;;3.66;90.37;102994.50;5003862;28;20254;-70
2022/01/13 11:34:27;;;;;;;40.83;16.97;;;;;;;3.67;91.22;102994.50;5003335;28;20206;-69